createdAt,value
2023-05-10T00:04:18.291Z,98524.81
2023-05-10T00:09:21.398Z,98514.22
2023-05-10T00:14:24.288Z,98510.13
2023-05-10T00:19:28.564Z,98503.78
2023-05-10T00:24:31.542Z,98510.09
2023-05-10T00:29:34.886Z,98501.28
2023-05-10T00:34:39.192Z,98489.06
2023-05-10T00:39:42.363Z,98491.09
2023-05-10T00:44:45.270Z,98484.75
2023-05-10T00:49:49.898Z,98475.97
2023-05-10T00:54:54.588Z,98485.59
2023-05-10T00:59:57.838Z,98478.22
2023-05-10T01:05:02.404Z,98471.47
2023-05-10T01:10:06.691Z,98472.69
2023-05-10T01:15:11.918Z,98465.88
2023-05-10T01:20:17.869Z,98465.06
2023-05-10T01:25:53.557Z,98467.47
2023-05-10T01:31:10.704Z,98457.56
2023-05-10T01:36:27.041Z,98452.19
2023-05-10T01:41:38.362Z,98455.97
2023-05-10T01:46:42.244Z,98456.94
2023-05-10T01:51:49.200Z,98457.97
2023-05-10T01:56:58.144Z,98458.75
2023-05-10T02:02:02.822Z,98464.94
2023-05-10T02:07:08.448Z,98456.13
2023-05-10T02:12:14.617Z,98454.78
2023-05-10T02:17:18.450Z,98459.47
2023-05-10T02:22:23.701Z,98463.94
2023-05-10T02:27:29.379Z,98451.47
2023-05-10T02:32:32.727Z,98449.50
2023-05-10T02:37:38.768Z,98450.75
2023-05-10T02:42:44.507Z,98443.44
2023-05-10T02:47:47.550Z,98448.44
2023-05-10T02:52:53.886Z,98443.38
2023-05-10T02:58:00.545Z,98442.38
2023-05-10T03:03:03.596Z,98446.00
2023-05-10T03:08:08.211Z,98455.56
2023-05-10T03:13:18.660Z,98447.72
2023-05-10T03:18:25.362Z,98447.00
2023-05-10T03:23:36.879Z,98438.72
2023-05-10T03:28:41.775Z,98434.81
2023-05-10T03:33:49.334Z,98429.88
2023-05-10T03:38:56.429Z,98435.28
2023-05-10T03:43:59.335Z,98448.53
2023-05-10T03:49:02.324Z,98443.84
2023-05-10T03:54:06.822Z,98447.84
2023-05-10T03:59:10.080Z,98443.03
2023-05-10T04:04:13.357Z,98444.06
2023-05-10T04:09:18.210Z,98446.13
2023-05-10T04:14:21.120Z,98444.63
2023-05-10T04:19:24.349Z,98443.84
2023-05-10T04:24:28.681Z,98440.28
2023-05-10T04:29:31.993Z,98430.66
2023-05-10T04:34:35.347Z,98433.13
2023-05-10T04:39:42.031Z,98434.84
2023-05-10T04:44:45.247Z,98427.25
2023-05-10T04:49:48.148Z,98420.13
2023-05-10T04:54:52.427Z,98423.00
2023-05-10T04:59:55.324Z,98427.19
2023-05-10T05:04:58.796Z,98420.66
2023-05-10T05:10:03.075Z,98417.94
2023-05-10T05:15:09.044Z,98420.41
2023-05-10T05:20:14.145Z,98436.03
2023-05-10T05:25:19.063Z,98427.28
2023-05-10T05:30:22.733Z,98416.09
2023-05-10T05:35:25.984Z,98421.75
2023-05-10T05:40:30.239Z,98424.09
2023-05-10T05:45:33.211Z,98422.00
2023-05-10T05:50:36.111Z,98433.59
2023-05-10T05:55:40.417Z,98434.72
2023-05-10T06:00:43.358Z,98437.47
2023-05-10T06:05:46.216Z,98441.53
2023-05-10T06:10:50.555Z,98440.47
2023-05-10T06:15:53.455Z,98449.22
2023-05-10T06:20:56.317Z,98446.84
2023-05-10T06:26:00.594Z,98444.81
2023-05-10T06:31:03.496Z,98448.13
2023-05-10T06:36:06.976Z,98445.16
2023-05-10T06:41:11.311Z,98444.00
2023-05-10T06:46:14.179Z,98447.69
2023-05-10T06:51:17.105Z,98448.69
2023-05-10T06:56:22.452Z,98449.13
2023-05-10T07:01:25.634Z,98452.72
2023-05-10T07:06:33.379Z,98449.34
2023-05-10T07:11:38.559Z,98453.91
2023-05-10T07:16:41.763Z,98459.00
2023-05-10T07:21:44.719Z,98456.28
2023-05-10T07:26:48.964Z,98451.78
2023-05-10T07:31:51.872Z,98460.19
2023-05-10T07:36:54.976Z,98458.81
2023-05-10T07:41:59.293Z,98461.50
2023-05-10T07:47:02.209Z,98462.84
2023-05-10T07:52:05.519Z,98454.22
2023-05-10T07:57:09.803Z,98453.56
2023-05-10T08:02:12.764Z,98454.97
2023-05-10T08:07:15.755Z,98454.56
2023-05-10T08:12:19.983Z,98451.72
2023-05-10T08:17:24.698Z,98451.59
2023-05-10T08:22:27.719Z,98454.59
2023-05-10T08:27:31.937Z,98459.22
2023-05-10T08:32:35.995Z,98461.19
2023-05-10T08:37:39.009Z,98469.91
2023-05-10T08:42:49.561Z,98468.78
2023-05-10T08:47:54.491Z,98482.63
2023-05-10T08:53:02.079Z,98486.88
2023-05-10T08:58:06.669Z,98489.50
2023-05-10T09:03:09.594Z,98495.63
2023-05-10T09:08:13.944Z,98491.13
2023-05-10T09:13:19.547Z,98502.75
2023-05-10T09:18:22.556Z,98501.44
2023-05-10T09:23:32.367Z,98495.94
2023-05-10T09:28:51.860Z,98512.84
2023-05-10T09:33:55.769Z,98507.84
2023-05-10T09:38:59.703Z,98506.38
2023-05-10T09:44:03.918Z,98515.63
2023-05-10T09:49:07.791Z,98520.50
2023-05-10T09:54:12.125Z,98511.47
2023-05-10T09:59:16.389Z,98511.63
2023-05-10T10:04:19.605Z,98506.53
2023-05-10T10:09:22.643Z,98511.31
2023-05-10T10:14:27.358Z,98512.00
2023-05-10T10:19:30.490Z,98509.38
2023-05-10T10:24:33.618Z,98515.69
2023-05-10T10:29:46.894Z,98520.88
2023-05-10T10:34:50.366Z,98517.69
2023-05-10T10:39:53.326Z,98517.69
2023-05-10T10:45:14.764Z,98523.22
2023-05-10T10:50:18.103Z,98527.78
2023-05-10T10:55:23.494Z,98517.63
2023-05-10T11:00:29.980Z,98531.38
2023-05-10T11:05:42.837Z,98513.25
2023-05-10T11:11:04.601Z,98529.22
2023-05-10T11:16:24.613Z,98523.88
2023-05-10T11:21:28.065Z,98520.66
2023-05-10T11:26:34.395Z,98527.25
2023-05-10T11:31:44.784Z,98527.28
2023-05-10T11:36:54.798Z,98527.91
2023-05-10T11:41:58.302Z,98536.38
2023-05-10T11:47:03.041Z,98529.19
2023-05-10T11:52:07.224Z,98524.44
2023-05-10T11:57:10.146Z,98521.03
2023-05-10T12:02:14.820Z,98537.34
2023-05-10T12:07:18.136Z,98539.31
2023-05-10T12:12:20.992Z,98536.50
2023-05-10T12:17:29.681Z,98547.31
2023-05-10T12:22:35.973Z,98552.69
2023-05-10T12:27:39.030Z,98549.50
2023-05-10T12:32:44.110Z,98557.06
2023-05-10T12:37:46.991Z,98556.03
2023-05-10T12:42:50.039Z,98557.75
2023-05-10T12:47:54.517Z,98561.03
2023-05-10T12:52:57.442Z,98566.50
2023-05-10T12:58:00.457Z,98572.41
2023-05-10T13:03:04.825Z,98566.75
2023-05-10T13:08:07.828Z,98575.22
2023-05-10T13:13:10.915Z,98569.44
2023-05-10T13:18:15.496Z,98573.41
2023-05-10T13:23:18.595Z,98578.66
2023-05-10T13:28:21.441Z,98568.44
2023-05-10T13:33:25.827Z,98576.56
2023-05-10T13:38:28.689Z,98567.97
2023-05-10T13:43:31.676Z,98565.53
2023-05-10T13:48:39.183Z,98561.72
2023-05-10T13:53:42.499Z,98558.44
2023-05-10T13:58:45.430Z,98566.94
2023-05-10T14:03:49.807Z,98559.84
2023-05-10T14:08:52.975Z,98564.03
2023-05-10T14:13:55.890Z,98561.16
2023-05-10T14:19:00.262Z,98564.31
2023-05-10T14:24:03.236Z,98561.38
2023-05-10T14:29:06.117Z,98566.69
2023-05-10T14:34:10.390Z,98565.38
2023-05-10T14:39:13.788Z,98560.28
2023-05-10T14:44:17.350Z,98558.97
2023-05-10T14:49:23.655Z,98561.44
2023-05-10T14:54:26.958Z,98562.22
2023-05-10T14:59:29.896Z,98559.66
2023-05-10T15:04:34.798Z,98573.38
2023-05-10T15:09:38.264Z,98571.72
2023-05-10T15:14:41.144Z,98575.34
2023-05-10T15:19:45.451Z,98573.19
2023-05-10T15:24:48.370Z,98574.56
2023-05-10T15:29:51.442Z,98569.75
2023-05-10T15:34:55.764Z,98579.00
2023-05-10T15:40:04.206Z,98576.22
2023-05-10T15:45:08.158Z,98578.16
2023-05-10T15:50:13.473Z,98579.88
2023-05-10T15:55:17.173Z,98586.91
2023-05-10T16:00:20.675Z,98589.97
2023-05-10T16:05:24.903Z,98589.66
2023-05-10T16:10:28.107Z,98591.59
2023-05-10T16:15:31.002Z,98587.72
2023-05-10T16:20:35.385Z,98594.75
2023-05-10T16:25:38.371Z,98585.09
2023-05-10T16:30:41.707Z,98598.53
2023-05-10T16:35:46.332Z,98606.16
2023-05-10T16:40:49.318Z,98611.84
2023-05-10T16:45:52.262Z,98614.06
2023-05-10T16:50:57.837Z,98629.91
2023-05-10T16:56:00.867Z,98620.03
2023-05-10T17:01:04.229Z,98628.72
2023-05-10T17:06:09.060Z,98640.75
2023-05-10T17:11:12.096Z,98643.59
2023-05-10T17:16:15.127Z,98649.88
2023-05-10T17:21:19.490Z,98645.63
2023-05-10T17:26:22.508Z,98648.63
2023-05-10T17:31:25.590Z,98641.78
2023-05-10T17:36:29.858Z,98662.16
2023-05-10T17:41:32.852Z,98661.06
2023-05-10T17:46:36.414Z,98663.97
2023-05-10T17:51:41.452Z,98666.25
2023-05-10T17:56:44.602Z,98676.13
2023-05-10T18:01:47.637Z,98677.72
2023-05-10T18:06:51.992Z,98675.59
2023-05-10T18:11:54.982Z,98683.50
2023-05-10T18:16:57.997Z,98686.47
2023-05-10T18:22:02.356Z,98684.63
2023-05-10T18:27:05.855Z,98681.97
2023-05-10T18:32:08.973Z,98689.91
2023-05-10T18:37:13.684Z,98691.75
2023-05-10T18:42:16.944Z,98696.28
2023-05-10T18:47:19.952Z,98702.66
2023-05-10T18:52:24.229Z,98704.53
2023-05-10T18:57:27.238Z,98712.47
2023-05-10T19:02:30.150Z,98707.19
2023-05-10T19:07:34.770Z,98718.28
2023-05-10T19:12:37.711Z,98726.50
2023-05-10T19:17:42.116Z,98735.47
2023-05-10T19:23:02.054Z,98744.47
2023-05-10T19:28:11.421Z,98741.84
2023-05-10T19:33:14.528Z,98739.97
2023-05-10T19:38:21.091Z,98740.75
2023-05-10T19:43:24.574Z,98740.44
2023-05-10T19:48:28.388Z,98742.28
2023-05-10T19:53:33.290Z,98735.63
2023-05-10T19:58:36.415Z,98741.91
2023-05-10T20:03:39.376Z,98743.19
2023-05-10T20:08:43.661Z,98743.66
2023-05-10T20:13:46.608Z,98747.75
2023-05-10T20:18:49.620Z,98740.28
2023-05-10T20:23:53.892Z,98740.78
2023-05-10T20:28:56.838Z,98741.72
2023-05-10T20:33:59.824Z,98747.50
2023-05-10T20:39:04.130Z,98752.59
2023-05-10T20:44:07.147Z,98753.78
2023-05-10T20:49:10.145Z,98749.34
2023-05-10T20:54:14.476Z,98757.44
2023-05-10T20:59:17.809Z,98758.09
2023-05-10T21:04:21.281Z,98749.16
2023-05-10T21:09:25.574Z,98753.81
2023-05-10T21:14:28.433Z,98752.69
2023-05-10T21:19:31.343Z,98754.47
2023-05-10T21:24:35.835Z,98758.91
2023-05-10T21:29:39.187Z,98758.41
2023-05-10T21:34:42.080Z,98752.69
2023-05-10T21:39:46.358Z,98764.69
2023-05-10T21:44:49.312Z,98758.69
2023-05-10T21:49:52.355Z,98748.25
2023-05-10T21:54:56.627Z,98761.81
2023-05-10T21:59:59.645Z,98767.81
2023-05-10T22:05:02.690Z,98764.31
2023-05-10T22:10:08.330Z,98763.09
2023-05-10T22:15:12.056Z,98763.75
2023-05-10T22:20:15.424Z,98767.72
2023-05-10T22:25:19.886Z,98776.19
2023-05-10T22:30:22.906Z,98768.44
2023-05-10T22:35:26.052Z,98764.84
2023-05-10T22:40:30.279Z,98764.16
2023-05-10T22:45:33.119Z,98766.66
2023-05-10T22:50:36.882Z,98773.94
2023-05-10T22:55:41.372Z,98773.38
2023-05-10T23:00:44.266Z,98774.97
2023-05-10T23:05:47.259Z,98774.16
2023-05-10T23:10:51.719Z,98767.50
2023-05-10T23:15:54.613Z,98769.56
2023-05-10T23:20:57.528Z,98764.22
2023-05-10T23:26:01.782Z,98774.81
2023-05-10T23:31:04.772Z,98773.06
2023-05-10T23:36:08.166Z,98767.09
2023-05-10T23:41:12.535Z,98772.38
2023-05-10T23:46:15.584Z,98772.63
2023-05-10T23:51:18.471Z,98769.78
2023-05-10T23:56:23.131Z,98761.25
